sensor_id;sensor_type;location;lat;lon;timestamp;P1;durP1;ratioP1;P2;durP2;ratioP2
23099;SDS011;53791;50.696;4.396;2023-08-20T00:00:57;4.25;;;2.12;;
23099;SDS011;53791;50.696;4.396;2023-08-20T00:03:25;2.22;;;1.47;;
23099;SDS011;53791;50.696;4.396;2023-08-20T00:05:52;3.95;;;1.95;;
23099;SDS011;53791;50.696;4.396;2023-08-20T00:08:20;2.05;;;1.45;;
23099;SDS011;53791;50.696;4.396;2023-08-20T00:10:48;1.75;;;1.20;;
23099;SDS011;53791;50.696;4.396;2023-08-20T00:13:16;2.00;;;1.42;;
23099;SDS011;53791;50.696;4.396;2023-08-20T00:15:43;4.60;;;2.37;;
23099;SDS011;53791;50.696;4.396;2023-08-20T00:18:11;3.87;;;1.60;;
23099;SDS011;53791;50.696;4.396;2023-08-20T00:20:40;2.15;;;1.47;;
23099;SDS011;53791;50.696;4.396;2023-08-20T00:23:10;2.90;;;1.65;;
23099;SDS011;53791;50.696;4.396;2023-08-20T00:25:38;3.25;;;1.45;;
23099;SDS011;53791;50.696;4.396;2023-08-20T00:28:06;2.22;;;1.50;;
23099;SDS011;53791;50.696;4.396;2023-08-20T00:30:33;2.00;;;1.35;;
23099;SDS011;53791;50.696;4.396;2023-08-20T00:33:01;2.30;;;1.40;;
23099;SDS011;53791;50.696;4.396;2023-08-20T00:35:30;2.10;;;1.52;;
23099;SDS011;53791;50.696;4.396;2023-08-20T00:37:58;2.67;;;1.65;;
23099;SDS011;53791;50.696;4.396;2023-08-20T00:40:27;2.15;;;1.47;;
23099;SDS011;53791;50.696;4.396;2023-08-20T00:42:57;3.85;;;1.60;;
23099;SDS011;53791;50.696;4.396;2023-08-20T00:45:24;2.35;;;1.47;;
23099;SDS011;53791;50.696;4.396;2023-08-20T00:47:53;2.08;;;1.55;;
23099;SDS011;53791;50.696;4.396;2023-08-20T00:50:21;2.77;;;1.62;;
23099;SDS011;53791;50.696;4.396;2023-08-20T01:12:50;2.17;;;1.47;;
23099;SDS011;53791;50.696;4.396;2023-08-20T02:20:33;3.05;;;2.05;;
23099;SDS011;53791;50.696;4.396;2023-08-20T02:23:01;2.37;;;1.67;;
23099;SDS011;53791;50.696;4.396;2023-08-20T02:25:28;3.65;;;1.95;;
23099;SDS011;53791;50.696;4.396;2023-08-20T02:27:56;3.25;;;1.95;;
23099;SDS011;53791;50.696;4.396;2023-08-20T02:30:27;2.35;;;1.72;;
23099;SDS011;53791;50.696;4.396;2023-08-20T02:38:06;2.35;;;1.72;;
23099;SDS011;53791;50.696;4.396;2023-08-20T02:43:41;3.87;;;1.77;;
23099;SDS011;53791;50.696;4.396;2023-08-20T02:46:36;2.27;;;1.60;;
23099;SDS011;53791;50.696;4.396;2023-08-20T02:49:06;3.70;;;2.15;;
23099;SDS011;53791;50.696;4.396;2023-08-20T03:02:53;4.15;;;2.33;;
23099;SDS011;53791;50.696;4.396;2023-08-20T03:08:01;4.08;;;1.77;;
23099;SDS011;53791;50.696;4.396;2023-08-20T03:10:31;3.47;;;2.47;;
23099;SDS011;53791;50.696;4.396;2023-08-20T03:13:06;3.33;;;2.20;;
23099;SDS011;53791;50.696;4.396;2023-08-20T03:15:42;1.95;;;1.50;;
23099;SDS011;53791;50.696;4.396;2023-08-20T03:18:25;2.98;;;1.90;;
23099;SDS011;53791;50.696;4.396;2023-08-20T03:20:55;2.30;;;1.80;;
23099;SDS011;53791;50.696;4.396;2023-08-20T03:23:30;7.85;;;2.40;;
23099;SDS011;53791;50.696;4.396;2023-08-20T03:26:04;8.33;;;2.30;;
23099;SDS011;53791;50.696;4.396;2023-08-20T03:31:37;3.35;;;2.10;;
23099;SDS011;53791;50.696;4.396;2023-08-20T03:37:12;2.02;;;1.62;;
23099;SDS011;53791;50.696;4.396;2023-08-20T03:42:44;5.05;;;2.98;;
23099;SDS011;53791;50.696;4.396;2023-08-20T03:45:16;2.67;;;1.85;;
23099;SDS011;53791;50.696;4.396;2023-08-20T03:47:44;2.92;;;1.90;;
23099;SDS011;53791;50.696;4.396;2023-08-20T03:50:19;2.92;;;1.80;;
23099;SDS011;53791;50.696;4.396;2023-08-20T03:52:45;3.30;;;1.90;;
23099;SDS011;53791;50.696;4.396;2023-08-20T03:55:12;6.75;;;1.82;;
23099;SDS011;53791;50.696;4.396;2023-08-20T03:57:40;2.22;;;1.70;;
23099;SDS011;53791;50.696;4.396;2023-08-20T04:00:08;2.35;;;1.60;;
23099;SDS011;53791;50.696;4.396;2023-08-20T04:02:37;2.15;;;1.65;;
23099;SDS011;53791;50.696;4.396;2023-08-20T04:05:05;5.12;;;2.02;;
23099;SDS011;53791;50.696;4.396;2023-08-20T04:07:33;2.25;;;1.75;;
23099;SDS011;53791;50.696;4.396;2023-08-20T04:10:00;2.25;;;1.75;;
23099;SDS011;53791;50.696;4.396;2023-08-20T04:12:28;2.45;;;1.75;;
23099;SDS011;53791;50.696;4.396;2023-08-20T04:14:55;3.83;;;2.15;;
23099;SDS011;53791;50.696;4.396;2023-08-20T04:17:23;3.05;;;2.00;;
23099;SDS011;53791;50.696;4.396;2023-08-20T04:19:52;2.10;;;1.57;;
23099;SDS011;53791;50.696;4.396;2023-08-20T04:22:19;2.22;;;1.70;;
23099;SDS011;53791;50.696;4.396;2023-08-20T04:24:48;2.20;;;1.70;;
23099;SDS011;53791;50.696;4.396;2023-08-20T04:27:16;2.40;;;1.47;;
23099;SDS011;53791;50.696;4.396;2023-08-20T04:29:43;2.22;;;1.72;;
23099;SDS011;53791;50.696;4.396;2023-08-20T04:32:11;4.15;;;1.90;;
23099;SDS011;53791;50.696;4.396;2023-08-20T04:34:38;3.10;;;2.25;;
23099;SDS011;53791;50.696;4.396;2023-08-20T04:37:06;10.80;;;2.25;;
23099;SDS011;53791;50.696;4.396;2023-08-20T04:39:33;5.22;;;2.40;;
23099;SDS011;53791;50.696;4.396;2023-08-20T04:42:01;2.75;;;2.10;;
23099;SDS011;53791;50.696;4.396;2023-08-20T04:44:32;2.70;;;2.12;;
23099;SDS011;53791;50.696;4.396;2023-08-20T04:46:59;5.42;;;2.00;;
23099;SDS011;53791;50.696;4.396;2023-08-20T04:49:27;2.22;;;1.72;;
23099;SDS011;53791;50.696;4.396;2023-08-20T04:51:55;2.70;;;1.92;;
23099;SDS011;53791;50.696;4.396;2023-08-20T04:54:23;1.90;;;1.50;;
23099;SDS011;53791;50.696;4.396;2023-08-20T04:56:50;2.33;;;1.62;;
23099;SDS011;53791;50.696;4.396;2023-08-20T04:59:18;4.58;;;2.70;;
23099;SDS011;53791;50.696;4.396;2023-08-20T05:01:45;5.80;;;2.08;;
23099;SDS011;53791;50.696;4.396;2023-08-20T05:04:13;2.70;;;1.60;;
23099;SDS011;53791;50.696;4.396;2023-08-20T05:06:40;2.83;;;1.80;;
23099;SDS011;53791;50.696;4.396;2023-08-20T05:09:08;2.45;;;2.00;;
23099;SDS011;53791;50.696;4.396;2023-08-20T05:11:35;3.05;;;2.05;;
23099;SDS011;53791;50.696;4.396;2023-08-20T05:14:03;2.35;;;1.72;;
23099;SDS011;53791;50.696;4.396;2023-08-20T05:16:31;4.28;;;2.25;;
23099;SDS011;53791;50.696;4.396;2023-08-20T05:18:58;4.00;;;1.82;;
23099;SDS011;53791;50.696;4.396;2023-08-20T05:21:27;2.40;;;1.87;;
23099;SDS011;53791;50.696;4.396;2023-08-20T05:23:55;2.75;;;1.80;;
23099;SDS011;53791;50.696;4.396;2023-08-20T05:26:22;2.02;;;1.55;;
23099;SDS011;53791;50.696;4.396;2023-08-20T05:28:50;14.38;;;2.17;;
23099;SDS011;53791;50.696;4.396;2023-08-20T05:31:19;2.77;;;1.82;;
23099;SDS011;53791;50.696;4.396;2023-08-20T05:33:46;2.95;;;2.02;;
23099;SDS011;53791;50.696;4.396;2023-08-20T05:36:14;2.92;;;2.05;;
23099;SDS011;53791;50.696;4.396;2023-08-20T05:44:13;6.17;;;1.95;;
23099;SDS011;53791;50.696;4.396;2023-08-20T05:46:44;18.23;;;2.58;;
23099;SDS011;53791;50.696;4.396;2023-08-20T05:49:15;3.98;;;2.77;;
23099;SDS011;53791;50.696;4.396;2023-08-20T05:51:44;6.47;;;2.25;;
23099;SDS011;53791;50.696;4.396;2023-08-20T05:54:12;5.83;;;2.40;;
23099;SDS011;53791;50.696;4.396;2023-08-20T05:56:39;4.62;;;2.83;;
23099;SDS011;53791;50.696;4.396;2023-08-20T05:59:07;4.03;;;2.62;;
23099;SDS011;53791;50.696;4.396;2023-08-20T06:01:34;2.60;;;2.22;;
23099;SDS011;53791;50.696;4.396;2023-08-20T06:04:02;3.45;;;2.17;;
23099;SDS011;53791;50.696;4.396;2023-08-20T06:06:30;3.00;;;1.80;;
23099;SDS011;53791;50.696;4.396;2023-08-20T06:08:57;3.90;;;2.17;;
23099;SDS011;53791;50.696;4.396;2023-08-20T06:11:25;5.10;;;2.67;;
23099;SDS011;53791;50.696;4.396;2023-08-20T06:13:52;2.12;;;1.67;;
23099;SDS011;53791;50.696;4.396;2023-08-20T06:16:20;4.72;;;2.30;;
23099;SDS011;53791;50.696;4.396;2023-08-20T06:18:47;3.33;;;2.17;;
23099;SDS011;53791;50.696;4.396;2023-08-20T06:21:15;5.17;;;2.65;;
23099;SDS011;53791;50.696;4.396;2023-08-20T06:23:42;2.20;;;1.70;;
23099;SDS011;53791;50.696;4.396;2023-08-20T06:26:10;3.95;;;2.70;;
23099;SDS011;53791;50.696;4.396;2023-08-20T06:28:37;2.33;;;1.85;;
23099;SDS011;53791;50.696;4.396;2023-08-20T06:31:05;3.02;;;2.22;;
23099;SDS011;53791;50.696;4.396;2023-08-20T06:33:32;3.55;;;2.60;;
23099;SDS011;53791;50.696;4.396;2023-08-20T06:36:00;2.77;;;2.22;;
23099;SDS011;53791;50.696;4.396;2023-08-20T06:38:27;3.67;;;3.02;;
23099;SDS011;53791;50.696;4.396;2023-08-20T06:40:55;4.15;;;2.75;;
23099;SDS011;53791;50.696;4.396;2023-08-20T06:43:23;3.27;;;1.98;;
23099;SDS011;53791;50.696;4.396;2023-08-20T06:45:50;3.40;;;2.65;;
23099;SDS011;53791;50.696;4.396;2023-08-20T06:56:20;2.62;;;2.12;;
23099;SDS011;53791;50.696;4.396;2023-08-20T06:58:47;3.17;;;2.30;;
23099;SDS011;53791;50.696;4.396;2023-08-20T07:17:24;5.12;;;2.55;;
23099;SDS011;53791;50.696;4.396;2023-08-20T07:20:00;3.35;;;2.12;;
23099;SDS011;53791;50.696;4.396;2023-08-20T07:25:17;2.00;;;1.70;;
23099;SDS011;53791;50.696;4.396;2023-08-20T07:27:58;1.90;;;1.60;;
23099;SDS011;53791;50.696;4.396;2023-08-20T07:33:33;2.75;;;1.80;;
23099;SDS011;53791;50.696;4.396;2023-08-20T07:36:01;2.20;;;1.90;;
23099;SDS011;53791;50.696;4.396;2023-08-20T07:38:29;2.45;;;1.92;;
23099;SDS011;53791;50.696;4.396;2023-08-20T07:41:04;2.10;;;1.90;;
23099;SDS011;53791;50.696;4.396;2023-08-20T07:43:30;2.33;;;1.90;;
23099;SDS011;53791;50.696;4.396;2023-08-20T07:46:02;2.42;;;1.95;;
23099;SDS011;53791;50.696;4.396;2023-08-20T07:48:29;5.75;;;2.20;;
23099;SDS011;53791;50.696;4.396;2023-08-20T07:50:57;11.80;;;2.52;;
23099;SDS011;53791;50.696;4.396;2023-08-20T07:53:25;3.22;;;2.52;;
23099;SDS011;53791;50.696;4.396;2023-08-20T07:55:52;2.25;;;1.95;;
23099;SDS011;53791;50.696;4.396;2023-08-20T07:58:20;2.45;;;2.08;;
23099;SDS011;53791;50.696;4.396;2023-08-20T08:00:47;2.10;;;1.90;;
23099;SDS011;53791;50.696;4.396;2023-08-20T08:03:15;2.30;;;1.80;;
23099;SDS011;53791;50.696;4.396;2023-08-20T08:05:46;2.10;;;1.80;;
23099;SDS011;53791;50.696;4.396;2023-08-20T08:08:19;2.30;;;1.80;;
23099;SDS011;53791;50.696;4.396;2023-08-20T08:10:49;2.08;;;1.80;;
23099;SDS011;53791;50.696;4.396;2023-08-20T08:13:13;2.33;;;1.87;;
23099;SDS011;53791;50.696;4.396;2023-08-20T08:15:42;2.72;;;2.20;;
23099;SDS011;53791;50.696;4.396;2023-08-20T08:18:09;2.12;;;1.90;;
23099;SDS011;53791;50.696;4.396;2023-08-20T08:20:36;2.77;;;2.10;;
23099;SDS011;53791;50.696;4.396;2023-08-20T08:23:04;3.75;;;2.05;;
23099;SDS011;53791;50.696;4.396;2023-08-20T08:25:32;2.72;;;1.90;;
23099;SDS011;53791;50.696;4.396;2023-08-20T08:28:03;9.50;;;2.20;;
23099;SDS011;53791;50.696;4.396;2023-08-20T08:30:28;2.95;;;2.17;;
23099;SDS011;53791;50.696;4.396;2023-08-20T08:32:56;2.15;;;1.72;;
23099;SDS011;53791;50.696;4.396;2023-08-20T08:35:24;2.15;;;1.95;;
23099;SDS011;53791;50.696;4.396;2023-08-20T08:37:52;10.78;;;2.50;;
23099;SDS011;53791;50.696;4.396;2023-08-20T08:40:20;3.00;;;2.10;;
23099;SDS011;53791;50.696;4.396;2023-08-20T08:42:49;2.05;;;1.62;;
23099;SDS011;53791;50.696;4.396;2023-08-20T08:45:18;2.62;;;1.92;;
23099;SDS011;53791;50.696;4.396;2023-08-20T08:47:46;2.12;;;1.82;;
23099;SDS011;53791;50.696;4.396;2023-08-20T08:50:14;2.65;;;2.02;;
23099;SDS011;53791;50.696;4.396;2023-08-20T08:52:42;2.08;;;1.62;;
23099;SDS011;53791;50.696;4.396;2023-08-20T08:55:13;4.25;;;1.87;;
23099;SDS011;53791;50.696;4.396;2023-08-20T08:57:40;2.40;;;1.90;;
23099;SDS011;53791;50.696;4.396;2023-08-20T09:00:10;1.90;;;1.60;;
23099;SDS011;53791;50.696;4.396;2023-08-20T09:02:38;2.50;;;2.00;;
23099;SDS011;53791;50.696;4.396;2023-08-20T09:05:07;2.12;;;1.60;;
23099;SDS011;53791;50.696;4.396;2023-08-20T09:07:37;2.72;;;1.95;;
23099;SDS011;53791;50.696;4.396;2023-08-20T09:10:05;5.53;;;2.25;;
23099;SDS011;53791;50.696;4.396;2023-08-20T09:12:34;3.60;;;1.80;;
23099;SDS011;53791;50.696;4.396;2023-08-20T09:15:02;2.92;;;1.80;;
23099;SDS011;53791;50.696;4.396;2023-08-20T09:17:30;2.65;;;1.80;;
23099;SDS011;53791;50.696;4.396;2023-08-20T09:19:57;2.22;;;1.65;;
23099;SDS011;53791;50.696;4.396;2023-08-20T09:22:26;2.20;;;1.70;;
23099;SDS011;53791;50.696;4.396;2023-08-20T09:24:58;2.15;;;1.62;;
23099;SDS011;53791;50.696;4.396;2023-08-20T09:27:27;2.45;;;1.52;;
23099;SDS011;53791;50.696;4.396;2023-08-20T09:29:55;2.30;;;1.77;;
23099;SDS011;53791;50.696;4.396;2023-08-20T09:32:28;2.08;;;1.55;;
23099;SDS011;53791;50.696;4.396;2023-08-20T09:34:55;3.02;;;1.90;;
23099;SDS011;53791;50.696;4.396;2023-08-20T09:37:23;3.10;;;2.02;;
23099;SDS011;53791;50.696;4.396;2023-08-20T09:39:51;1.82;;;1.42;;
23099;SDS011;53791;50.696;4.396;2023-08-20T09:42:18;2.17;;;1.40;;
23099;SDS011;53791;50.696;4.396;2023-08-20T09:44:46;2.35;;;1.40;;
23099;SDS011;53791;50.696;4.396;2023-08-20T09:47:15;1.80;;;1.30;;
23099;SDS011;53791;50.696;4.396;2023-08-20T09:49:44;3.42;;;1.90;;
23099;SDS011;53791;50.696;4.396;2023-08-20T09:52:25;2.60;;;1.42;;
23099;SDS011;53791;50.696;4.396;2023-08-20T09:55:02;7.42;;;1.75;;
23099;SDS011;53791;50.696;4.396;2023-08-20T10:00:09;1.98;;;1.40;;
23099;SDS011;53791;50.696;4.396;2023-08-20T10:02:38;2.22;;;1.50;;
23099;SDS011;53791;50.696;4.396;2023-08-20T10:05:06;3.87;;;1.55;;
23099;SDS011;53791;50.696;4.396;2023-08-20T10:07:35;13.38;;;1.90;;
23099;SDS011;53791;50.696;4.396;2023-08-20T10:10:04;2.40;;;1.62;;
23099;SDS011;53791;50.696;4.396;2023-08-20T10:12:34;3.17;;;1.67;;
23099;SDS011;53791;50.696;4.396;2023-08-20T10:15:05;2.05;;;1.45;;
23099;SDS011;53791;50.696;4.396;2023-08-20T10:17:34;5.00;;;1.80;;
23099;SDS011;53791;50.696;4.396;2023-08-20T10:20:03;2.37;;;1.47;;
23099;SDS011;53791;50.696;4.396;2023-08-20T10:22:32;2.17;;;1.45;;
23099;SDS011;53791;50.696;4.396;2023-08-20T10:25:06;2.05;;;1.40;;
23099;SDS011;53791;50.696;4.396;2023-08-20T10:27:35;2.25;;;1.55;;
23099;SDS011;53791;50.696;4.396;2023-08-20T10:30:08;1.95;;;1.40;;
23099;SDS011;53791;50.696;4.396;2023-08-20T10:32:46;5.75;;;2.15;;
23099;SDS011;53791;50.696;4.396;2023-08-20T10:35:16;2.00;;;1.42;;
23099;SDS011;53791;50.696;4.396;2023-08-20T10:38:06;2.15;;;1.40;;
23099;SDS011;53791;50.696;4.396;2023-08-20T10:40:49;2.67;;;1.52;;
23099;SDS011;53791;50.696;4.396;2023-08-20T10:46:06;2.50;;;1.47;;
23099;SDS011;53791;50.696;4.396;2023-08-20T10:48:36;1.98;;;1.32;;
23099;SDS011;53791;50.696;4.396;2023-08-20T10:51:14;6.53;;;1.90;;
23099;SDS011;53791;50.696;4.396;2023-08-20T10:57:02;1.87;;;1.30;;
23099;SDS011;53791;50.696;4.396;2023-08-20T10:59:29;2.02;;;1.20;;
23099;SDS011;53791;50.696;4.396;2023-08-20T11:02:00;1.47;;;0.90;;
23099;SDS011;53791;50.696;4.396;2023-08-20T11:04:30;4.08;;;1.65;;
23099;SDS011;53791;50.696;4.396;2023-08-20T11:06:58;3.10;;;1.62;;
23099;SDS011;53791;50.696;4.396;2023-08-20T11:09:26;1.80;;;1.15;;
23099;SDS011;53791;50.696;4.396;2023-08-20T11:11:55;1.80;;;1.10;;
23099;SDS011;53791;50.696;4.396;2023-08-20T11:14:23;2.45;;;1.52;;
23099;SDS011;53791;50.696;4.396;2023-08-20T11:16:51;3.67;;;1.57;;
23099;SDS011;53791;50.696;4.396;2023-08-20T11:19:19;2.27;;;1.20;;
23099;SDS011;53791;50.696;4.396;2023-08-20T11:21:48;2.22;;;1.27;;
23099;SDS011;53791;50.696;4.396;2023-08-20T11:24:17;1.57;;;1.02;;
23099;SDS011;53791;50.696;4.396;2023-08-20T11:26:46;4.92;;;1.25;;
23099;SDS011;53791;50.696;4.396;2023-08-20T11:29:15;3.35;;;1.62;;
23099;SDS011;53791;50.696;4.396;2023-08-20T11:31:45;2.37;;;1.32;;
23099;SDS011;53791;50.696;4.396;2023-08-20T11:34:12;2.27;;;1.10;;
23099;SDS011;53791;50.696;4.396;2023-08-20T11:36:40;1.62;;;0.90;;
23099;SDS011;53791;50.696;4.396;2023-08-20T11:39:08;1.52;;;0.82;;
23099;SDS011;53791;50.696;4.396;2023-08-20T11:41:36;1.80;;;1.05;;
23099;SDS011;53791;50.696;4.396;2023-08-20T11:44:05;2.98;;;1.30;;
23099;SDS011;53791;50.696;4.396;2023-08-20T11:46:34;1.70;;;1.07;;
23099;SDS011;53791;50.696;4.396;2023-08-20T11:49:08;1.98;;;1.05;;
23099;SDS011;53791;50.696;4.396;2023-08-20T11:51:42;2.58;;;1.40;;
23099;SDS011;53791;50.696;4.396;2023-08-20T11:54:17;1.55;;;0.90;;
23099;SDS011;53791;50.696;4.396;2023-08-20T11:56:48;2.17;;;1.35;;
23099;SDS011;53791;50.696;4.396;2023-08-20T11:59:18;2.15;;;1.10;;
23099;SDS011;53791;50.696;4.396;2023-08-20T12:01:50;1.82;;;1.15;;
23099;SDS011;53791;50.696;4.396;2023-08-20T12:04:18;2.65;;;1.40;;
23099;SDS011;53791;50.696;4.396;2023-08-20T12:06:52;2.20;;;1.05;;
23099;SDS011;53791;50.696;4.396;2023-08-20T12:09:23;1.87;;;1.00;;
23099;SDS011;53791;50.696;4.396;2023-08-20T12:11:54;1.77;;;1.10;;
23099;SDS011;53791;50.696;4.396;2023-08-20T12:14:18;1.70;;;1.00;;
23099;SDS011;53791;50.696;4.396;2023-08-20T12:16:46;2.67;;;1.05;;
23099;SDS011;53791;50.696;4.396;2023-08-20T12:19:15;1.70;;;0.90;;
23099;SDS011;53791;50.696;4.396;2023-08-20T12:21:43;7.42;;;1.50;;
23099;SDS011;53791;50.696;4.396;2023-08-20T12:24:11;2.72;;;1.22;;
23099;SDS011;53791;50.696;4.396;2023-08-20T12:26:40;2.17;;;1.22;;
23099;SDS011;53791;50.696;4.396;2023-08-20T12:29:08;2.00;;;1.02;;
23099;SDS011;53791;50.696;4.396;2023-08-20T12:31:35;2.15;;;1.27;;
23099;SDS011;53791;50.696;4.396;2023-08-20T12:34:03;2.20;;;1.17;;
23099;SDS011;53791;50.696;4.396;2023-08-20T12:36:30;6.62;;;1.37;;
23099;SDS011;53791;50.696;4.396;2023-08-20T12:38:58;2.25;;;1.10;;
23099;SDS011;53791;50.696;4.396;2023-08-20T12:41:25;6.20;;;1.10;;
23099;SDS011;53791;50.696;4.396;2023-08-20T12:43:53;2.05;;;1.00;;
23099;SDS011;53791;50.696;4.396;2023-08-20T12:46:20;2.02;;;0.90;;
23099;SDS011;53791;50.696;4.396;2023-08-20T12:48:48;2.47;;;1.10;;
23099;SDS011;53791;50.696;4.396;2023-08-20T12:51:16;2.87;;;1.45;;
23099;SDS011;53791;50.696;4.396;2023-08-20T12:53:43;2.50;;;1.30;;
23099;SDS011;53791;50.696;4.396;2023-08-20T12:56:11;1.40;;;0.85;;
23099;SDS011;53791;50.696;4.396;2023-08-20T12:58:40;1.50;;;0.80;;
23099;SDS011;53791;50.696;4.396;2023-08-20T13:01:07;1.92;;;1.02;;
23099;SDS011;53791;50.696;4.396;2023-08-20T13:03:35;2.02;;;1.05;;
23099;SDS011;53791;50.696;4.396;2023-08-20T13:06:04;1.57;;;0.90;;
23099;SDS011;53791;50.696;4.396;2023-08-20T13:08:32;2.27;;;1.47;;
23099;SDS011;53791;50.696;4.396;2023-08-20T13:10:59;1.95;;;0.93;;
23099;SDS011;53791;50.696;4.396;2023-08-20T13:13:28;2.47;;;1.12;;
23099;SDS011;53791;50.696;4.396;2023-08-20T13:15:57;1.82;;;1.02;;
23099;SDS011;53791;50.696;4.396;2023-08-20T13:18:25;1.87;;;1.15;;
23099;SDS011;53791;50.696;4.396;2023-08-20T13:20:53;1.42;;;0.80;;
23099;SDS011;53791;50.696;4.396;2023-08-20T13:23:21;4.95;;;1.77;;
23099;SDS011;53791;50.696;4.396;2023-08-20T13:25:49;2.17;;;1.15;;
23099;SDS011;53791;50.696;4.396;2023-08-20T13:28:17;1.32;;;0.80;;
23099;SDS011;53791;50.696;4.396;2023-08-20T13:30:44;1.70;;;1.00;;
23099;SDS011;53791;50.696;4.396;2023-08-20T13:33:15;1.90;;;1.17;;
23099;SDS011;53791;50.696;4.396;2023-08-20T13:36:00;1.65;;;0.95;;
23099;SDS011;53791;50.696;4.396;2023-08-20T13:38:28;1.95;;;0.98;;
23099;SDS011;53791;50.696;4.396;2023-08-20T13:40:57;3.00;;;1.30;;
23099;SDS011;53791;50.696;4.396;2023-08-20T13:43:25;2.58;;;1.27;;
23099;SDS011;53791;50.696;4.396;2023-08-20T13:45:53;4.30;;;0.90;;
23099;SDS011;53791;50.696;4.396;2023-08-20T13:48:20;1.40;;;0.90;;
23099;SDS011;53791;50.696;4.396;2023-08-20T13:50:48;1.20;;;0.72;;
23099;SDS011;53791;50.696;4.396;2023-08-20T13:53:15;1.47;;;0.80;;
23099;SDS011;53791;50.696;4.396;2023-08-20T13:55:43;3.47;;;1.00;;
23099;SDS011;53791;50.696;4.396;2023-08-20T13:58:10;1.10;;;0.68;;
23099;SDS011;53791;50.696;4.396;2023-08-20T14:00:38;1.75;;;1.00;;
23099;SDS011;53791;50.696;4.396;2023-08-20T14:03:06;5.53;;;1.00;;
23099;SDS011;53791;50.696;4.396;2023-08-20T14:05:34;1.20;;;0.65;;
23099;SDS011;53791;50.696;4.396;2023-08-20T14:08:01;1.50;;;0.72;;
23099;SDS011;53791;50.696;4.396;2023-08-20T14:10:29;1.57;;;1.00;;
23099;SDS011;53791;50.696;4.396;2023-08-20T14:12:56;1.60;;;1.00;;
23099;SDS011;53791;50.696;4.396;2023-08-20T14:15:24;1.30;;;0.85;;
23099;SDS011;53791;50.696;4.396;2023-08-20T14:17:51;3.30;;;1.30;;
23099;SDS011;53791;50.696;4.396;2023-08-20T14:20:19;2.25;;;1.20;;
23099;SDS011;53791;50.696;4.396;2023-08-20T14:22:46;2.27;;;1.00;;
23099;SDS011;53791;50.696;4.396;2023-08-20T14:25:14;2.62;;;1.02;;
23099;SDS011;53791;50.696;4.396;2023-08-20T14:27:41;3.10;;;1.37;;
23099;SDS011;53791;50.696;4.396;2023-08-20T14:30:09;1.92;;;1.10;;
23099;SDS011;53791;50.696;4.396;2023-08-20T14:32:37;1.72;;;0.90;;
23099;SDS011;53791;50.696;4.396;2023-08-20T14:35:04;2.85;;;1.37;;
23099;SDS011;53791;50.696;4.396;2023-08-20T14:37:32;1.62;;;0.80;;
23099;SDS011;53791;50.696;4.396;2023-08-20T14:39:59;1.20;;;0.80;;
23099;SDS011;53791;50.696;4.396;2023-08-20T14:42:27;1.25;;;0.70;;
23099;SDS011;53791;50.696;4.396;2023-08-20T14:44:55;1.85;;;0.93;;
23099;SDS011;53791;50.696;4.396;2023-08-20T14:47:22;5.20;;;1.32;;
23099;SDS011;53791;50.696;4.396;2023-08-20T14:49:50;1.55;;;0.90;;
23099;SDS011;53791;50.696;4.396;2023-08-20T14:52:18;1.40;;;0.60;;
23099;SDS011;53791;50.696;4.396;2023-08-20T14:54:45;1.62;;;0.80;;
23099;SDS011;53791;50.696;4.396;2023-08-20T14:57:14;1.32;;;0.68;;
23099;SDS011;53791;50.696;4.396;2023-08-20T14:59:43;5.65;;;0.85;;
23099;SDS011;53791;50.696;4.396;2023-08-20T15:02:11;1.25;;;0.75;;
23099;SDS011;53791;50.696;4.396;2023-08-20T15:04:38;1.20;;;0.75;;
23099;SDS011;53791;50.696;4.396;2023-08-20T15:07:11;2.08;;;1.00;;
23099;SDS011;53791;50.696;4.396;2023-08-20T15:09:39;1.57;;;0.88;;
23099;SDS011;53791;50.696;4.396;2023-08-20T15:12:04;1.47;;;0.82;;
23099;SDS011;53791;50.696;4.396;2023-08-20T15:14:32;1.35;;;0.70;;
23099;SDS011;53791;50.696;4.396;2023-08-20T15:17:00;10.13;;;1.30;;
23099;SDS011;53791;50.696;4.396;2023-08-20T15:19:28;2.10;;;1.07;;
23099;SDS011;53791;50.696;4.396;2023-08-20T15:21:55;1.32;;;0.80;;
23099;SDS011;53791;50.696;4.396;2023-08-20T15:24:23;1.00;;;0.60;;
23099;SDS011;53791;50.696;4.396;2023-08-20T15:26:50;3.20;;;1.05;;
23099;SDS011;53791;50.696;4.396;2023-08-20T15:29:18;1.25;;;0.70;;
23099;SDS011;53791;50.696;4.396;2023-08-20T15:31:45;1.32;;;0.70;;
23099;SDS011;53791;50.696;4.396;2023-08-20T15:34:14;3.40;;;0.75;;
23099;SDS011;53791;50.696;4.396;2023-08-20T15:36:42;5.65;;;0.80;;
23099;SDS011;53791;50.696;4.396;2023-08-20T15:39:14;1.10;;;0.70;;
23099;SDS011;53791;50.696;4.396;2023-08-20T15:41:38;1.12;;;0.75;;
23099;SDS011;53791;50.696;4.396;2023-08-20T15:44:07;1.07;;;0.60;;
23099;SDS011;53791;50.696;4.396;2023-08-20T15:46:34;1.87;;;0.95;;
23099;SDS011;53791;50.696;4.396;2023-08-20T15:49:02;3.45;;;1.17;;
23099;SDS011;53791;50.696;4.396;2023-08-20T15:51:30;3.02;;;0.95;;
23099;SDS011;53791;50.696;4.396;2023-08-20T15:53:58;2.00;;;1.25;;
23099;SDS011;53791;50.696;4.396;2023-08-20T15:56:26;2.20;;;1.00;;
23099;SDS011;53791;50.696;4.396;2023-08-20T15:58:53;2.83;;;1.00;;
23099;SDS011;53791;50.696;4.396;2023-08-20T16:01:21;1.92;;;1.00;;
23099;SDS011;53791;50.696;4.396;2023-08-20T16:03:55;1.47;;;0.88;;
23099;SDS011;53791;50.696;4.396;2023-08-20T16:06:19;0.88;;;0.57;;
23099;SDS011;53791;50.696;4.396;2023-08-20T16:08:47;1.87;;;1.10;;
23099;SDS011;53791;50.696;4.396;2023-08-20T16:11:15;1.37;;;0.70;;
23099;SDS011;53791;50.696;4.396;2023-08-20T16:13:42;6.97;;;1.37;;
23099;SDS011;53791;50.696;4.396;2023-08-20T16:16:13;1.87;;;1.02;;
23099;SDS011;53791;50.696;4.396;2023-08-20T16:18:42;1.50;;;0.80;;
23099;SDS011;53791;50.696;4.396;2023-08-20T16:21:10;1.07;;;0.70;;
23099;SDS011;53791;50.696;4.396;2023-08-20T16:23:38;1.62;;;0.88;;
23099;SDS011;53791;50.696;4.396;2023-08-20T16:26:11;2.12;;;1.00;;
23099;SDS011;53791;50.696;4.396;2023-08-20T16:28:40;2.62;;;1.20;;
23099;SDS011;53791;50.696;4.396;2023-08-20T16:31:08;2.05;;;1.15;;
23099;SDS011;53791;50.696;4.396;2023-08-20T16:36:22;1.85;;;0.90;;
23099;SDS011;53791;50.696;4.396;2023-08-20T16:41:49;2.27;;;1.12;;
23099;SDS011;53791;50.696;4.396;2023-08-20T16:44:14;1.42;;;0.70;;
23099;SDS011;53791;50.696;4.396;2023-08-20T16:46:43;1.72;;;0.98;;
23099;SDS011;53791;50.696;4.396;2023-08-20T16:49:12;2.17;;;1.22;;
23099;SDS011;53791;50.696;4.396;2023-08-20T16:51:40;2.27;;;1.00;;
23099;SDS011;53791;50.696;4.396;2023-08-20T16:54:08;1.90;;;0.93;;
23099;SDS011;53791;50.696;4.396;2023-08-20T16:56:35;1.22;;;0.80;;
23099;SDS011;53791;50.696;4.396;2023-08-20T16:59:03;3.30;;;1.30;;
23099;SDS011;53791;50.696;4.396;2023-08-20T17:01:30;2.67;;;1.02;;
23099;SDS011;53791;50.696;4.396;2023-08-20T17:03:58;1.82;;;1.00;;
23099;SDS011;53791;50.696;4.396;2023-08-20T17:06:26;1.25;;;0.72;;
23099;SDS011;53791;50.696;4.396;2023-08-20T17:08:53;1.92;;;0.90;;
23099;SDS011;53791;50.696;4.396;2023-08-20T17:11:21;1.40;;;0.80;;
23099;SDS011;53791;50.696;4.396;2023-08-20T17:13:48;1.92;;;1.05;;
23099;SDS011;53791;50.696;4.396;2023-08-20T17:16:16;1.65;;;1.00;;
23099;SDS011;53791;50.696;4.396;2023-08-20T17:18:45;1.37;;;0.72;;
23099;SDS011;53791;50.696;4.396;2023-08-20T17:23:48;3.83;;;1.32;;
23099;SDS011;53791;50.696;4.396;2023-08-20T17:26:16;1.35;;;0.80;;
23099;SDS011;53791;50.696;4.396;2023-08-20T17:28:43;2.52;;;1.20;;
23099;SDS011;53791;50.696;4.396;2023-08-20T17:33:57;1.30;;;0.80;;
23099;SDS011;53791;50.696;4.396;2023-08-20T17:36:25;2.52;;;0.98;;
23099;SDS011;53791;50.696;4.396;2023-08-20T17:38:53;2.72;;;1.40;;
23099;SDS011;53791;50.696;4.396;2023-08-20T17:41:21;2.20;;;1.27;;
23099;SDS011;53791;50.696;4.396;2023-08-20T17:43:49;2.77;;;1.17;;
23099;SDS011;53791;50.696;4.396;2023-08-20T17:46:16;2.50;;;1.47;;
23099;SDS011;53791;50.696;4.396;2023-08-20T17:48:44;5.15;;;2.47;;